Time;durP1;ratioP1;P1;durP2;ratioP2;P2;SDS_P1;SDS_P2;PMS_P1;PMS_P2;Temp;Humidity;BMP_temperature;BMP_pressure;BME280_temperature;BME280_humidity;BME280_pressure;Samples;Min_cycle;Max_cycle;Signal;HPM_P1;HPM_P2
2024/04/21 00:01:58;;;;;;;10.52;9.60;;;;;;;6.88;81.22;98265.75;5209311;27;20022;-72
2024/04/21 00:04:24;;;;;;;12.93;11.82;;;;;;;6.82;81.56;98259.38;5209646;27;20018;-71
2024/04/21 00:06:50;;;;;;;15.38;13.55;;;;;;;6.86;81.83;98259.78;5208345;27;20011;-71
2024/04/21 00:09:15;;;;;;;14.57;13.27;;;;;;;6.83;81.74;98255.69;5223320;27;20015;-71
2024/04/21 00:11:41;;;;;;;14.70;13.25;;;;;;;6.80;82.07;98250.75;5222981;27;20352;-71
2024/04/21 00:14:08;;;;;;;14.75;13.30;;;;;;;6.83;82.05;98249.50;5194094;27;20020;-72
2024/04/21 00:16:33;;;;;;;14.38;12.98;;;;;;;6.73;82.52;98238.47;5221810;27;20014;-71
2024/04/21 00:18:58;;;;;;;14.15;12.63;;;;;;;6.79;82.43;98254.47;5223867;27;20490;-71
2024/04/21 00:21:24;;;;;;;11.93;10.93;;;;;;;6.70;82.70;98250.44;5210544;27;20079;-72
2024/04/21 00:23:49;;;;;;;11.65;10.45;;;;;;;6.57;83.04;98239.00;5222058;27;20363;-72
2024/04/21 00:26:15;;;;;;;10.65;9.60;;;;;;;6.45;83.21;98230.03;5200975;27;20026;-73
2024/04/21 00:28:40;;;;;;;8.52;7.72;;;;;;;6.38;83.80;98254.19;5221272;27;20035;-73
2024/04/21 00:31:05;;;;;;;8.20;7.60;;;;;;;6.19;84.06;98236.41;5195702;27;20000;-72
2024/04/21 00:33:31;;;;;;;8.23;7.43;;;;;;;6.11;84.59;98228.66;5208010;27;20007;-72
2024/04/21 00:35:57;;;;;;;10.13;9.13;;;;;;;6.21;84.36;98243.16;5199374;27;20010;-73
2024/04/21 00:38:22;;;;;;;9.38;8.57;;;;;;;6.11;84.78;98239.34;5201494;27;20004;-74
2024/04/21 00:40:47;;;;;;;9.95;8.55;;;;;;;6.07;85.28;98248.81;5196035;27;19995;-73
2024/04/21 00:43:13;;;;;;;8.20;7.35;;;;;;;6.05;84.94;98240.19;5202348;27;20014;-72
2024/04/21 00:45:41;;;;;;;9.00;6.90;;;;;;;6.09;84.87;98244.09;5217747;27;19996;-73
2024/04/21 00:48:08;;;;;;;6.30;5.70;;;;;;;5.90;84.79;98237.00;5206276;27;20015;-73
2024/04/21 00:50:34;;;;;;;5.47;4.97;;;;;;;5.83;83.99;98225.50;5215637;27;20077;-72
2024/04/21 00:53:00;;;;;;;7.43;4.90;;;;;;;5.98;83.40;98229.53;5174180;27;19997;-72
2024/04/21 00:55:26;;;;;;;4.28;3.97;;;;;;;5.74;82.89;98237.47;5194926;27;20000;-72
2024/04/21 00:57:52;;;;;;;4.90;4.50;;;;;;;5.60;83.34;98226.81;5231633;27;20020;-72
2024/04/21 01:00:18;;;;;;;4.70;4.30;;;;;;;5.44;83.03;98219.28;5202009;27;20000;-72
2024/04/21 01:02:44;;;;;;;5.57;5.07;;;;;;;5.54;82.95;98233.00;5212940;27;20000;-72
2024/04/21 01:05:09;;;;;;;4.97;4.57;;;;;;;5.48;82.92;98215.13;5208938;27;20019;-71
2024/04/21 01:07:36;;;;;;;6.32;5.15;;;;;;;5.56;82.95;98230.94;5224162;27;20024;-72
2024/04/21 01:10:03;;;;;;;5.00;4.70;;;;;;;5.52;83.80;98227.06;5208829;27;20003;-71
2024/04/21 01:12:29;;;;;;;6.80;6.28;;;;;;;5.57;83.32;98223.75;5193666;27;20007;-71
2024/04/21 01:14:54;;;;;;;5.93;5.30;;;;;;;5.37;83.73;98215.81;5198910;27;20004;-72
2024/04/21 01:17:20;;;;;;;4.45;4.07;;;;;;;5.33;83.16;98225.28;5200264;27;20007;-73
2024/04/21 01:19:45;;;;;;;4.60;4.20;;;;;;;5.04;83.60;98220.41;5217281;27;20003;-73
2024/04/21 01:22:10;;;;;;;5.65;5.15;;;;;;;4.75;83.56;98220.88;5217058;27;20460;-73
2024/04/21 01:24:36;;;;;;;4.97;4.57;;;;;;;4.57;84.07;98213.53;5207840;27;20011;-73
2024/04/21 01:27:01;;;;;;;4.07;3.78;;;;;;;4.49;83.51;98188.88;5220989;27;20463;-73
2024/04/21 01:29:27;;;;;;;4.38;4.07;;;;;;;4.30;84.31;98213.69;5197271;27;20004;-72
2024/04/21 01:31:52;;;;;;;4.13;3.83;;;;;;;4.10;84.71;98201.19;5221278;27;20003;-73
2024/04/21 01:34:17;;;;;;;4.07;3.78;;;;;;;4.14;83.95;98213.06;5209870;27;20004;-73
2024/04/21 01:36:43;;;;;;;5.03;4.63;;;;;;;4.19;83.70;98218.63;5187407;27;20464;-73
2024/04/21 01:39:08;;;;;;;5.28;4.88;;;;;;;4.14;83.52;98212.25;5197552;27;20052;-73
2024/04/21 01:41:33;;;;;;;6.00;5.50;;;;;;;3.88;84.21;98205.03;5206866;27;20343;-73
2024/04/21 01:43:59;;;;;;;7.00;6.32;;;;;;;3.93;83.30;98194.59;5170367;27;20004;-73
2024/04/21 01:46:24;;;;;;;4.50;4.20;;;;;;;3.98;82.74;98208.13;5187184;27;20004;-74
2024/04/21 01:48:50;;;;;;;6.07;4.90;;;;;;;3.85;82.58;98191.31;5208394;27;20003;-74
2024/04/21 01:51:15;;;;;;;4.78;4.38;;;;;;;3.82;82.45;98176.56;5180980;27;20014;-74
2024/04/21 01:53:40;;;;;;;6.85;5.85;;;;;;;3.94;82.38;98185.59;5207140;27;20348;-74
2024/04/21 01:56:06;;;;;;;4.70;4.28;;;;;;;3.90;81.96;98178.19;5200053;27;20083;-74
2024/04/21 01:58:31;;;;;;;5.97;4.40;;;;;;;3.95;81.99;98187.22;5199928;27;20004;-74
2024/04/21 02:00:57;;;;;;;6.97;5.00;;;;;;;3.98;81.87;98186.00;5197767;27;20007;-72
2024/04/21 02:03:22;;;;;;;3.55;3.28;;;;;;;3.88;81.45;98165.06;5202145;27;20015;-72
2024/04/21 02:05:47;;;;;;;4.15;3.85;;;;;;;3.89;81.46;98156.06;5217551;27;20007;-75
2024/04/21 02:08:13;;;;;;;4.28;3.97;;;;;;;3.86;81.36;98151.16;5159828;27;20014;-74
2024/04/21 02:10:38;;;;;;;5.25;4.40;;;;;;;3.96;81.62;98166.72;5196098;27;20007;-74
2024/04/21 02:13:03;;;;;;;4.53;4.13;;;;;;;3.92;81.36;98155.66;5200169;27;20491;-73
2024/04/21 02:15:29;;;;;;;5.22;4.82;;;;;;;3.92;81.71;98145.00;5209868;27;20007;-73
2024/04/21 02:17:54;;;;;;;10.00;8.65;;;;;;;3.91;81.24;98143.38;5170023;27;20023;-73
2024/04/21 02:20:20;;;;;;;7.50;6.82;;;;;;;3.90;81.37;98149.72;5172234;27;20079;-73
2024/04/21 02:22:45;;;;;;;6.60;5.95;;;;;;;3.89;81.17;98156.06;5205681;27;20428;-71
2024/04/21 02:25:10;;;;;;;7.90;7.10;;;;;;;3.92;81.09;98155.66;5175022;27;20499;-72
2024/04/21 02:27:36;;;;;;;9.07;8.15;;;;;;;3.82;80.76;98133.13;5203425;27;20011;-73
2024/04/21 02:30:01;;;;;;;8.15;7.00;;;;;;;3.88;80.91;98151.75;5206029;27;20462;-72
2024/04/21 02:32:27;;;;;;;11.23;7.97;;;;;;;3.76;80.71;98134.72;5222902;27;20035;-73
2024/04/21 02:34:52;;;;;;;3.40;3.20;;;;;;;3.66;80.99;98126.34;5227174;27;20504;-73
2024/04/21 02:37:17;;;;;;;5.05;4.55;;;;;;;3.77;80.79;98146.22;5216002;27;20015;-72
2024/04/21 02:39:43;;;;;;;3.10;2.90;;;;;;;3.77;80.91;98136.38;5215428;27;20004;-73
2024/04/21 02:42:08;;;;;;;1.95;1.85;;;;;;;3.73;80.99;98129.84;5204089;27;20023;-73
2024/04/21 02:44:33;;;;;;;1.83;1.73;;;;;;;3.74;81.32;98128.78;5209148;27;20031;-73
2024/04/21 02:46:59;;;;;;;1.20;1.20;;;;;;;3.79;81.21;98129.00;5211269;27;20004;-73
2024/04/21 02:49:24;;;;;;;1.70;1.60;;;;;;;3.71;81.02;98121.19;5212153;27;20470;-74
2024/04/21 02:51:49;;;;;;;1.60;1.50;;;;;;;3.63;81.06;98104.59;5202008;27;20004;-74
2024/04/21 02:54:15;;;;;;;1.70;1.60;;;;;;;3.62;81.37;98101.13;5196419;27;20086;-74
2024/04/21 02:56:40;;;;;;;1.58;1.48;;;;;;;3.70;81.15;98113.44;5157687;27;20000;-74
2024/04/21 02:59:05;;;;;;;1.48;1.38;;;;;;;3.62;80.98;98100.31;5210874;27;20391;-73
2024/04/21 03:01:31;;;;;;;1.10;1.10;;;;;;;3.72;81.14;98112.19;5219585;21;20032;-74
2024/04/21 03:03:57;;;;;;;1.00;1.00;;;;;;;3.62;81.56;98100.31;5180769;27;20003;-74
2024/04/21 03:06:22;;;;;;;1.10;1.10;;;;;;;3.59;81.65;98090.91;5238858;27;20015;-74
2024/04/21 03:08:48;;;;;;;2.13;2.03;;;;;;;3.63;81.67;98108.09;5188051;27;20229;-74
2024/04/21 03:11:13;;;;;;;1.60;1.50;;;;;;;3.66;81.48;98101.53;5217688;27;19999;-73
2024/04/21 03:13:38;;;;;;;1.80;1.30;;;;;;;3.66;81.34;98107.69;5217807;27;20454;-73
2024/04/21 03:16:04;;;;;;;1.35;1.35;;;;;;;3.65;81.38;98100.72;5211826;27;20001;-73
2024/04/21 03:18:30;;;;;;;1.45;1.35;;;;;;;3.57;81.65;98087.59;5248070;27;20000;-73
2024/04/21 03:20:59;;;;;;;1.50;1.40;;;;;;;3.57;81.29;98066.28;5184103;27;20014;-74
2024/04/21 03:23:25;;;;;;;1.50;1.40;;;;;;;3.66;81.29;98091.72;5235971;27;20003;-75
2024/04/21 03:25:50;;;;;;;1.00;1.00;;;;;;;3.61;81.53;98088.84;5213384;27;20003;-73
2024/04/21 03:28:16;;;;;;;1.40;1.30;;;;;;;3.61;80.98;98083.53;5212016;27;20007;-74
2024/04/21 03:30:41;;;;;;;2.20;2.05;;;;;;;3.57;81.11;98079.59;5217587;27;20019;-75
2024/04/21 03:33:08;;;;;;;1.33;1.25;;;;;;;3.55;81.35;98088.84;5202705;27;20019;-75
2024/04/21 03:35:33;;;;;;;1.50;1.40;;;;;;;3.41;81.46;98056.84;5186512;27;20060;-75
2024/04/21 03:37:59;;;;;;;1.40;1.15;;;;;;;3.44;81.68;98066.28;5211714;27;20788;-75
2024/04/21 03:40:24;;;;;;;1.30;1.23;;;;;;;3.40;81.88;98051.75;5206409;27;20544;-75
2024/04/21 03:42:50;;;;;;;1.80;1.70;;;;;;;3.34;81.91;98049.88;5209028;27;20494;-74
2024/04/21 03:45:15;;;;;;;1.40;1.30;;;;;;;3.41;82.21;98058.69;5210382;27;20004;-74
2024/04/21 03:47:40;;;;;;;1.25;1.25;;;;;;;3.39;82.13;98066.06;5209944;27;20000;-76
2024/04/21 03:50:06;;;;;;;1.02;1.02;;;;;;;3.52;82.06;98071.44;5209978;27;20008;-76
2024/04/21 03:52:32;;;;;;;1.33;1.33;;;;;;;3.38;82.01;98051.13;5209471;27;20049;-76
2024/04/21 03:54:57;;;;;;;1.10;1.10;;;;;;;3.44;82.17;98061.78;5237667;27;20027;-76
2024/04/21 03:57:27;;;;;;;1.60;1.50;;;;;;;3.44;81.85;98058.31;5210289;27;20008;-77
2024/04/21 03:59:52;;;;;;;2.10;2.00;;;;;;;3.40;81.84;98054.41;5210549;27;20047;-75
2024/04/21 04:02:18;;;;;;;1.42;1.38;;;;;;;3.34;82.25;98049.88;5232529;27;20008;-74
2024/04/21 04:04:43;;;;;;;1.90;1.80;;;;;;;3.39;81.69;98052.75;5236503;27;20004;-76
2024/04/21 04:07:08;;;;;;;1.67;1.58;;;;;;;3.32;82.23;98043.94;5209870;27;20018;-76
2024/04/21 04:09:34;;;;;;;2.35;2.15;;;;;;;3.27;82.12;98062.34;5209450;27;20007;-76
2024/04/21 04:11:59;;;;;;;2.10;2.00;;;;;;;3.32;82.68;98062.56;5149534;27;20008;-76
2024/04/21 04:14:24;;;;;;;1.85;1.75;;;;;;;3.29;82.37;98052.34;5191229;27;20022;-77
2024/04/21 04:16:50;;;;;;;2.42;2.30;;;;;;;3.17;82.10;98038.00;5190456;27;20074;-76
2024/04/21 04:19:15;;;;;;;6.20;4.45;;;;;;;3.20;82.47;98048.22;5211043;27;20352;-76
2024/04/21 04:21:41;;;;;;;3.28;3.05;;;;;;;3.30;82.38;98069.94;5209638;27;20000;-75
2024/04/21 04:24:06;;;;;;;3.97;3.50;;;;;;;3.16;82.81;98057.63;5181680;27;20000;-76
2024/04/21 04:26:32;;;;;;;2.80;2.60;;;;;;;3.29;82.50;98063.00;5208005;27;20017;-74
2024/04/21 04:28:57;;;;;;;3.13;2.92;;;;;;;3.27;82.49;98070.34;5215847;27;20011;-74
2024/04/21 04:31:23;;;;;;;4.75;4.38;;;;;;;3.18;82.49;98055.56;5209634;27;20010;-74
2024/04/21 04:33:48;;;;;;;5.32;4.93;;;;;;;3.13;82.87;98042.06;5181495;27;20011;-77
2024/04/21 04:36:14;;;;;;;7.00;6.32;;;;;;;3.01;83.69;98054.31;5182872;27;19999;-76
2024/04/21 04:38:39;;;;;;;8.80;7.90;;;;;;;3.07;83.47;98064.16;5209938;27;20019;-76
2024/04/21 04:41:05;;;;;;;6.88;6.30;;;;;;;3.01;83.80;98056.97;5171726;27;20157;-76
2024/04/21 04:43:34;;;;;;;8.15;7.35;;;;;;;2.84;83.42;98008.66;5206196;27;20004;-75
2024/04/21 04:45:59;;;;;;;9.32;8.52;;;;;;;3.00;83.22;98037.53;5211470;27;20539;-76
2024/04/21 04:48:24;;;;;;;7.07;6.57;;;;;;;3.05;83.15;98059.03;5182882;27;20016;-76
2024/04/21 04:50:50;;;;;;;7.82;7.22;;;;;;;2.99;83.26;98045.72;5177341;27;20005;-76
2024/04/21 04:53:15;;;;;;;8.82;8.02;;;;;;;3.10;83.49;98064.59;5190608;27;20008;-76
2024/04/21 04:55:43;;;;;;;6.80;6.20;;;;;;;3.11;83.13;98052.91;5181861;27;19999;-77
2024/04/21 04:58:09;;;;;;;13.20;10.20;;;;;;;3.02;83.53;98029.34;5210616;27;20018;-78
2024/04/21 05:00:34;;;;;;;10.63;9.63;;;;;;;3.22;83.52;98054.19;5209432;27;20005;-77
2024/04/21 05:02:59;;;;;;;9.85;8.85;;;;;;;3.21;83.67;98039.22;5219597;27;20015;-76
2024/04/21 05:05:25;;;;;;;8.55;7.75;;;;;;;3.19;83.46;98030.63;5186719;27;20004;-76
2024/04/21 05:07:50;;;;;;;7.70;7.10;;;;;;;3.23;83.52;98037.19;5233783;27;20004;-76
2024/04/21 05:10:16;;;;;;;7.60;7.00;;;;;;;3.44;83.30;98068.94;5176048;27;20088;-77
2024/04/21 05:12:42;;;;;;;5.88;5.38;;;;;;;3.08;82.93;98001.97;5180729;27;20481;-77
2024/04/21 05:15:07;;;;;;;8.32;7.53;;;;;;;3.25;83.19;98035.13;5209142;27;20007;-77
2024/04/21 05:17:32;;;;;;;6.15;5.65;;;;;;;3.14;83.10;98027.75;5181380;27;20003;-77
2024/04/21 05:19:58;;;;;;;5.90;5.40;;;;;;;3.20;83.44;98053.53;5209516;27;20018;-78
2024/04/21 05:22:23;;;;;;;4.93;4.55;;;;;;;3.22;83.80;98056.84;5181969;27;20022;-77
2024/04/21 05:24:48;;;;;;;4.43;4.13;;;;;;;3.29;83.18;98055.00;5181111;27;20008;-78
2024/04/21 05:27:14;;;;;;;3.65;3.45;;;;;;;3.42;83.03;98068.34;5186287;27;20460;-77
2024/04/21 05:29:39;;;;;;;3.70;3.50;;;;;;;3.46;83.51;98065.06;5175126;27;20011;-77
2024/04/21 05:32:05;;;;;;;3.20;3.00;;;;;;;3.49;83.21;98069.16;5211583;27;20007;-77
2024/04/21 05:34:30;;;;;;;2.75;2.55;;;;;;;3.55;83.12;98072.88;5208823;27;19996;-77
2024/04/21 05:36:55;;;;;;;2.40;2.30;;;;;;;3.47;83.01;98060.56;5236728;27;19999;-77
2024/04/21 05:39:23;;;;;;;2.20;2.10;;;;;;;3.53;83.29;98058.91;5208043;27;20068;-77
2024/04/21 05:41:48;;;;;;;2.33;2.22;;;;;;;3.47;82.85;98039.28;5178974;27;20007;-77
2024/04/21 05:44:16;;;;;;;2.13;2.03;;;;;;;3.76;83.08;98065.50;5208899;27;20027;-76
2024/04/21 05:46:41;;;;;;;2.88;2.67;;;;;;;3.79;82.80;98065.09;5205032;27;20352;-77
2024/04/21 05:49:06;;;;;;;4.60;4.20;;;;;;;3.73;82.36;98060.59;5206466;27;20010;-76
2024/04/21 05:51:32;;;;;;;3.60;3.30;;;;;;;3.73;82.63;98071.25;5214291;27;20097;-77
2024/04/21 05:53:57;;;;;;;3.22;3.03;;;;;;;3.71;82.00;98062.63;5206264;27;20011;-76
2024/04/21 05:56:22;;;;;;;5.68;5.18;;;;;;;3.74;82.15;98070.22;5236324;27;20000;-75
2024/04/21 05:58:48;;;;;;;6.95;6.35;;;;;;;3.61;82.47;98077.38;5220274;27;20013;-77
2024/04/21 06:01:13;;;;;;;7.93;7.20;;;;;;;3.45;82.83;98051.97;5208171;27;20003;-77
2024/04/21 06:03:38;;;;;;;6.47;5.72;;;;;;;3.50;82.67;98076.13;5179863;27;20514;-76
2024/04/21 06:06:04;;;;;;;6.30;5.70;;;;;;;3.40;83.14;98065.06;5209651;27;20003;-77
2024/04/21 06:08:29;;;;;;;6.65;5.90;;;;;;;2.94;82.80;98011.72;5208255;27;20015;-76
2024/04/21 06:10:56;;;;;;;6.55;6.05;;;;;;;2.92;83.91;98023.63;5207975;27;20000;-76
2024/04/21 06:13:21;;;;;;;6.45;5.85;;;;;;;3.15;82.84;98045.34;5209280;27;20384;-76
2024/04/21 06:15:46;;;;;;;6.00;5.38;;;;;;;3.03;82.95;98009.72;5221891;27;20014;-75
2024/04/21 06:18:12;;;;;;;4.68;4.28;;;;;;;3.39;82.91;98063.41;5208044;27;20014;-76
2024/04/21 06:20:37;;;;;;;7.30;6.38;;;;;;;3.48;82.48;98072.84;5207596;27;20012;-76
2024/04/21 06:23:03;;;;;;;7.10;6.50;;;;;;;3.52;83.39;98084.75;5214055;27;20004;-75
2024/04/21 06:25:28;;;;;;;8.20;7.38;;;;;;;3.66;82.66;98086.41;5205258;27;19996;-76
2024/04/21 06:27:54;;;;;;;8.60;7.80;;;;;;;3.71;82.22;98088.44;5207783;27;20011;-76
2024/04/21 06:30:19;;;;;;;8.25;7.50;;;;;;;3.78;82.50;98083.94;5207323;27;20456;-77
2024/04/21 06:32:44;;;;;;;9.38;8.48;;;;;;;3.72;82.44;98068.78;5179603;27;20015;-76
2024/04/21 06:35:10;;;;;;;9.27;8.25;;;;;;;3.81;81.97;98078.19;5207765;27;20080;-76
2024/04/21 06:37:35;;;;;;;9.30;8.20;;;;;;;3.87;82.51;98080.06;5207928;27;20344;-76
2024/04/21 06:40:01;;;;;;;8.50;7.70;;;;;;;3.92;81.88;98074.94;5234218;27;20380;-76
2024/04/21 06:42:26;;;;;;;8.07;7.38;;;;;;;3.91;81.69;98074.13;5166661;27;20077;-76
2024/04/21 06:44:51;;;;;;;9.38;8.57;;;;;;;3.91;82.11;98060.78;5152183;27;20010;-76
2024/04/21 06:47:17;;;;;;;8.80;8.00;;;;;;;3.88;82.27;98061.19;5207566;27;20011;-76
2024/04/21 06:49:42;;;;;;;8.85;7.95;;;;;;;4.08;81.78;98080.66;5174657;27;20005;-76
2024/04/21 06:52:07;;;;;;;8.23;7.53;;;;;;;4.16;81.73;98084.94;5207242;27;20416;-75
2024/04/21 06:54:33;;;;;;;8.65;7.82;;;;;;;4.24;81.21;98078.59;5182689;27;20014;-76
2024/04/21 06:56:58;;;;;;;8.73;7.93;;;;;;;4.41;81.11;98080.59;5175047;27;20011;-76
2024/04/21 06:59:24;;;;;;;8.25;7.47;;;;;;;4.42;81.24;98076.09;5203356;27;20011;-76
2024/04/21 07:01:49;;;;;;;6.93;6.43;;;;;;;4.40;81.08;98078.16;5214514;27;19999;-76
2024/04/21 07:04:15;;;;;;;7.35;6.75;;;;;;;4.54;80.90;98079.78;5206645;27;20015;-75
2024/04/21 07:06:41;;;;;;;10.45;7.88;;;;;;;4.51;80.79;98075.66;5216596;27;19999;-75
2024/04/21 07:09:06;;;;;;;7.32;6.72;;;;;;;4.69;80.60;98099.81;5222466;27;20022;-75
2024/04/21 07:11:31;;;;;;;7.90;7.30;;;;;;;4.38;81.56;98089.03;5223579;27;20000;-75
2024/04/21 07:13:57;;;;;;;6.60;6.10;;;;;;;4.67;80.57;98093.88;5225353;27;20010;-75
2024/04/21 07:16:22;;;;;;;8.18;7.45;;;;;;;4.62;80.66;98079.56;5196028;27;20003;-75
2024/04/21 07:18:48;;;;;;;8.20;7.60;;;;;;;4.79;80.59;98094.88;5218846;27;19999;-75
2024/04/21 07:21:14;;;;;;;7.45;6.85;;;;;;;4.69;80.42;98051.81;5206564;27;20012;-75
2024/04/21 07:23:39;;;;;;;6.00;5.45;;;;;;;5.06;80.32;98095.63;5152888;27;20325;-76
2024/04/21 07:26:05;;;;;;;5.90;5.40;;;;;;;5.09;80.18;98087.16;5201233;27;20004;-76
2024/04/21 07:28:30;;;;;;;3.70;3.40;;;;;;;5.23;79.57;98091.41;5218829;27;20472;-76
2024/04/21 07:30:55;;;;;;;3.67;3.40;;;;;;;5.17;79.58;98076.25;5208581;27;20074;-75
2024/04/21 07:33:22;;;;;;;3.10;2.90;;;;;;;5.33;79.57;98097.13;5201169;27;20479;-76
2024/04/21 07:35:47;;;;;;;2.40;2.20;;;;;;;5.44;79.46;98088.41;5206484;27;20032;-76
2024/04/21 07:38:12;;;;;;;1.67;1.40;;;;;;;5.29;79.49;98090.56;5173850;27;20015;-76
2024/04/21 07:40:38;;;;;;;1.30;1.20;;;;;;;5.16;79.08;98090.63;5211329;27;20400;-77
2024/04/21 07:43:03;;;;;;;1.23;1.23;;;;;;;5.17;79.07;98097.59;5182478;27;20015;-76
2024/04/21 07:45:29;;;;;;;0.98;0.98;;;;;;;5.15;79.06;98094.34;5206394;27;19999;-76
2024/04/21 07:47:54;;;;;;;1.20;1.20;;;;;;;5.13;78.65;98068.88;5208436;27;20004;-76
2024/04/21 07:50:19;;;;;;;1.02;1.02;;;;;;;5.17;78.85;98086.94;5206154;27;20787;-76
2024/04/21 07:52:45;;;;;;;1.33;1.30;;;;;;;5.14;78.55;98087.34;5180969;27;20006;-77
2024/04/21 07:55:11;;;;;;;1.00;1.00;;;;;;;5.13;79.33;98100.91;5209866;27;20074;-76
2024/04/21 07:57:36;;;;;;;1.27;1.27;;;;;;;4.99;78.84;98078.81;5209715;27;20000;-76
2024/04/21 08:00:02;;;;;;;1.33;1.30;;;;;;;5.07;79.26;98091.06;5182019;27;20012;-77
2024/04/21 08:02:36;;;;;;;1.20;1.20;;;;;;;4.97;78.59;98086.19;5208871;27;20332;-77
2024/04/21 08:05:02;;;;;;;1.40;1.30;;;;;;;4.97;79.13;98102.19;5182320;27;19995;-77
2024/04/21 08:07:27;;;;;;;1.65;1.55;;;;;;;5.06;79.66;98116.13;5182476;27;20015;-77
2024/04/21 08:09:52;;;;;;;1.88;1.77;;;;;;;5.03;79.22;98111.22;5221899;27;20014;-76
2024/04/21 08:12:18;;;;;;;3.53;2.63;;;;;;;5.13;79.71;98128.44;5237151;27;20440;-76
2024/04/21 08:14:43;;;;;;;2.08;1.98;;;;;;;4.97;79.86;98112.88;5231033;27;20465;-77
2024/04/21 08:17:08;;;;;;;2.20;2.10;;;;;;;5.06;80.09;98122.31;5203899;27;20052;-77
2024/04/21 08:19:34;;;;;;;2.17;2.08;;;;;;;4.86;80.35;98100.19;5209230;27;19999;-76
2024/04/21 08:21:59;;;;;;;2.40;2.20;;;;;;;5.10;80.21;98123.50;5176312;27;20004;-76
2024/04/21 08:24:25;;;;;;;2.90;2.70;;;;;;;5.09;80.39;98121.84;5197212;27;20032;-77
2024/04/21 08:26:54;;;;;;;3.10;2.90;;;;;;;5.29;80.24;98122.63;5209357;27;20023;-76
2024/04/21 08:29:19;;;;;;;3.00;2.80;;;;;;;5.29;80.25;98127.13;5210093;27;20399;-76
2024/04/21 08:31:44;;;;;;;3.20;3.00;;;;;;;4.95;80.34;98061.56;5176520;27;20015;-76
2024/04/21 08:34:10;;;;;;;3.10;2.90;;;;;;;5.29;80.17;98114.59;5243209;27;20016;-76
2024/04/21 08:36:35;;;;;;;3.97;3.67;;;;;;;5.45;80.21;98132.78;5236569;27;20072;-76
2024/04/21 08:39:01;;;;;;;2.97;2.78;;;;;;;5.43;80.04;98140.22;5209047;27;20464;-76
2024/04/21 08:41:30;;;;;;;3.22;2.97;;;;;;;5.37;80.06;98122.34;5209175;27;20003;-76
2024/04/21 08:43:56;;;;;;;3.20;3.00;;;;;;;5.65;79.97;98153.25;5180848;27;20403;-76
2024/04/21 08:46:22;;;;;;;3.65;3.45;;;;;;;5.65;79.75;98140.69;5210868;27;20548;-76
2024/04/21 08:48:48;;;;;;;3.70;3.40;;;;;;;5.62;79.26;98137.63;5208604;27;20004;-76
2024/04/21 08:51:13;;;;;;;2.88;2.67;;;;;;;5.57;78.86;98152.47;5175598;27;20016;-76
2024/04/21 08:53:41;;;;;;;3.30;3.10;;;;;;;5.49;78.90;98128.66;5179723;27;20359;-76
2024/04/21 08:56:19;;;;;;;3.35;3.15;;;;;;;5.72;79.19;98144.13;5208845;27;20007;-76
2024/04/21 08:58:50;;;;;;;3.67;3.42;;;;;;;5.83;78.66;98166.69;5209104;27;20004;-76
2024/04/21 09:01:19;;;;;;;3.60;3.40;;;;;;;5.81;78.97;98152.75;5209110;27;20015;-76
2024/04/21 09:03:48;;;;;;;4.03;3.72;;;;;;;5.67;79.06;98129.81;5185206;27;20000;-76
2024/04/21 09:06:24;;;;;;;3.92;3.63;;;;;;;5.85;78.47;98172.69;5209023;27;20004;-76
2024/04/21 09:08:51;;;;;;;3.83;3.55;;;;;;;5.75;78.53;98142.88;5195222;27;20004;-76
2024/04/21 09:11:16;;;;;;;4.13;3.72;;;;;;;5.73;78.37;98135.09;5243118;27;20009;-76
2024/04/21 09:13:41;;;;;;;4.47;4.15;;;;;;;5.94;78.53;98147.31;5207881;27;20020;-76
2024/04/21 09:16:07;;;;;;;3.88;3.58;;;;;;;5.90;78.60;98162.16;5224224;27;20456;-76
2024/04/21 09:18:32;;;;;;;4.50;4.20;;;;;;;5.80;78.43;98145.75;5224734;27;20008;-76
2024/04/21 09:20:57;;;;;;;4.40;4.10;;;;;;;5.89;78.67;98147.97;5199179;27;20004;-76
2024/04/21 09:23:23;;;;;;;3.53;3.17;;;;;;;5.97;78.51;98165.63;5204479;27;20008;-76
2024/04/21 09:25:49;;;;;;;3.72;3.42;;;;;;;5.92;77.92;98154.75;5208495;27;20018;-76
2024/04/21 09:28:15;;;;;;;3.88;3.42;;;;;;;5.90;78.81;98167.50;5208908;27;20032;-76
2024/04/21 09:30:40;;;;;;;3.78;3.47;;;;;;;5.97;78.52;98170.97;5208381;27;20000;-76
2024/04/21 09:33:06;;;;;;;5.47;4.97;;;;;;;5.91;78.71;98169.97;5180602;27;20008;-76
2024/04/21 09:35:32;;;;;;;4.30;4.00;;;;;;;5.86;79.18;98180.47;5180809;27;20104;-76
2024/04/21 09:37:57;;;;;;;4.15;3.85;;;;;;;5.90;79.22;98186.22;5208653;27;20011;-76
2024/04/21 09:40:23;;;;;;;3.50;3.28;;;;;;;5.91;78.92;98179.81;5209785;27;20023;-76
2024/04/21 09:42:49;;;;;;;4.13;3.83;;;;;;;6.04;79.04;98185.09;5207374;27;20035;-76
2024/04/21 09:45:16;;;;;;;3.95;3.65;;;;;;;6.02;79.70;98171.94;5208176;27;20480;-75
2024/04/21 09:47:43;;;;;;;4.68;4.30;;;;;;;6.02;79.48;98171.94;5222422;27;20071;-76
2024/04/21 09:50:11;;;;;;;4.40;4.05;;;;;;;6.16;79.18;98178.03;5208905;27;19999;-75
2024/04/21 09:52:36;;;;;;;4.50;4.10;;;;;;;6.06;79.24;98167.00;5179096;27;20530;-75
2024/04/21 09:55:02;;;;;;;4.30;4.00;;;;;;;5.99;79.39;98177.72;5208609;27;20014;-75
2024/04/21 09:57:32;;;;;;;4.60;4.30;;;;;;;5.93;79.42;98161.72;5211569;27;20035;-75
2024/04/21 10:00:01;;;;;;;4.47;4.18;;;;;;;6.08;79.04;98176.44;5212850;27;20113;-75
2024/04/21 10:02:32;;;;;;;4.40;4.10;;;;;;;6.16;79.29;98188.72;5208257;27;20009;-75
2024/04/21 10:05:04;;;;;;;4.82;4.53;;;;;;;6.20;79.17;98190.75;5209464;27;20040;-75
2024/04/21 10:07:33;;;;;;;4.10;3.80;;;;;;;6.14;79.63;98191.59;5207886;27;20019;-75
2024/04/21 10:10:00;;;;;;;4.28;3.97;;;;;;;5.99;79.31;98171.56;5207849;27;20019;-75
2024/04/21 10:12:25;;;;;;;4.70;4.40;;;;;;;6.06;79.46;98199.06;5210031;27;20018;-75
2024/04/21 10:14:51;;;;;;;4.28;3.97;;;;;;;6.02;79.05;98181.81;5201696;27;20349;-75
2024/04/21 10:17:17;;;;;;;5.47;5.07;;;;;;;6.21;78.79;98202.25;5194364;27;20048;-76
2024/04/21 10:19:42;;;;;;;4.82;4.45;;;;;;;6.26;79.64;98191.72;5194309;27;20102;-76
2024/04/21 10:22:08;;;;;;;4.70;4.30;;;;;;;6.37;79.49;98192.88;5178748;27;20076;-76
2024/04/21 10:24:35;;;;;;;4.38;4.07;;;;;;;6.50;78.76;98193.59;5205086;27;20016;-76
2024/04/21 10:27:01;;;;;;;5.05;4.65;;;;;;;6.51;79.16;98207.78;5207743;27;20348;-75
2024/04/21 10:29:29;;;;;;;4.97;4.65;;;;;;;6.49;78.99;98199.97;5204489;27;20020;-76
2024/04/21 10:31:54;;;;;;;5.78;5.28;;;;;;;6.38;79.21;98192.66;5194050;27;20003;-75
2024/04/21 10:34:19;;;;;;;4.70;4.40;;;;;;;6.42;80.00;98193.06;5206567;27;20023;-75
2024/04/21 10:36:46;;;;;;;4.90;4.60;;;;;;;6.60;78.95;98198.47;5180572;27;20004;-76
2024/04/21 10:39:22;;;;;;;5.03;4.65;;;;;;;6.59;78.69;98194.13;5207744;27;20040;-75
2024/04/21 10:41:49;;;;;;;5.40;4.90;;;;;;;6.69;78.73;98211.34;5186315;27;20015;-75
2024/04/21 10:44:14;;;;;;;4.78;4.47;;;;;;;6.68;78.80;98209.69;5206815;27;20468;-76
2024/04/21 10:46:39;;;;;;;5.05;4.65;;;;;;;6.77;78.21;98213.72;5187675;27;20014;-76
2024/04/21 10:49:05;;;;;;;4.97;4.57;;;;;;;6.69;78.38;98195.28;5207628;27;20008;-75
2024/04/21 10:51:31;;;;;;;5.75;5.35;;;;;;;6.70;78.73;98196.91;5177706;27;20019;-76
2024/04/21 10:53:57;;;;;;;6.13;5.63;;;;;;;6.82;78.91;98199.69;5206676;27;20411;-76
2024/04/21 10:56:22;;;;;;;3.85;3.55;;;;;;;6.85;78.40;98208.09;5180027;27;20004;-76
2024/04/21 10:58:48;;;;;;;4.10;3.80;;;;;;;6.89;78.45;98228.03;5201659;27;20024;-76
2024/04/21 11:01:15;;;;;;;4.68;4.38;;;;;;;6.84;78.66;98203.78;5199127;27;20013;-76
2024/04/21 11:03:43;;;;;;;5.13;4.63;;;;;;;7.07;78.60;98224.56;5206505;27;20015;-76
2024/04/21 11:06:09;;;;;;;4.53;4.18;;;;;;;7.06;78.97;98208.72;5166713;27;20019;-75
2024/04/21 11:08:34;;;;;;;4.10;3.80;;;;;;;7.17;78.38;98224.03;5211315;27;20004;-76
2024/04/21 11:11:00;;;;;;;3.40;3.20;;;;;;;7.18;78.45;98214.97;5199687;27;20015;-76
2024/04/21 11:13:27;;;;;;;3.55;3.33;;;;;;;7.07;78.51;98208.47;5191341;27;20005;-76
2024/04/21 11:15:52;;;;;;;3.30;3.10;;;;;;;7.26;77.72;98228.09;5213698;27;20710;-75
2024/04/21 11:18:17;;;;;;;3.13;2.92;;;;;;;7.31;77.74;98230.91;5179712;27;20079;-75
2024/04/21 11:20:43;;;;;;;2.67;2.47;;;;;;;7.13;77.40;98217.50;5236311;27;20023;-77
2024/04/21 11:23:09;;;;;;;2.95;2.75;;;;;;;7.07;77.23;98213.06;5206336;27;20087;-76
2024/04/21 11:25:36;;;;;;;2.72;2.53;;;;;;;7.03;77.65;98214.50;5193670;27;20118;-76
2024/04/21 11:28:11;;;;;;;2.90;2.70;;;;;;;7.15;76.84;98220.78;5200005;27;20088;-77
2024/04/21 11:30:37;;;;;;;2.92;2.72;;;;;;;6.90;76.16;98235.03;5192434;27;20007;-76
2024/04/21 11:33:02;;;;;;;2.78;2.58;;;;;;;6.80;76.41;98221.31;5231492;27;20004;-76
2024/04/21 11:35:28;;;;;;;2.55;2.35;;;;;;;6.88;76.18;98247.78;5182880;27;20052;-76